createdAt,value
2023-04-04T00:00:00.710Z,0
2023-04-04T00:02:32.965Z,0
2023-04-04T00:03:49.123Z,0
2023-04-04T00:05:05.251Z,0
2023-04-04T00:06:21.388Z,0
2023-04-04T00:07:37.516Z,0
2023-04-04T00:08:53.657Z,0
2023-04-04T00:10:09.807Z,0
2023-04-04T00:11:25.942Z,0
2023-04-04T00:12:42.132Z,0
2023-04-04T00:13:57.371Z,0
2023-04-04T00:15:12.585Z,0
2023-04-04T00:16:28.718Z,0
2023-04-04T00:17:44.843Z,0
2023-04-04T00:19:00.975Z,0
2023-04-04T00:20:17.125Z,0
2023-04-04T00:21:33.262Z,0
2023-04-04T00:22:49.400Z,0
2023-04-04T00:24:05.521Z,0
2023-04-04T00:25:21.659Z,0
2023-04-04T00:26:37.810Z,0
2023-04-04T00:27:53.934Z,0
2023-04-04T00:29:10.075Z,0
2023-04-04T00:30:26.215Z,0
2023-04-04T00:31:42.346Z,0
2023-04-04T00:32:58.498Z,0
2023-04-04T00:34:14.617Z,0
2023-04-04T00:35:30.759Z,0
2023-04-04T00:36:46.883Z,0
2023-04-04T00:38:03.019Z,0
2023-04-04T00:39:19.182Z,0
2023-04-04T00:40:35.307Z,0
2023-04-04T00:41:51.440Z,0
2023-04-04T00:43:07.581Z,0
2023-04-04T00:44:23.703Z,0
2023-04-04T00:45:39.846Z,0
2023-04-04T00:46:56.049Z,0
2023-04-04T00:48:11.280Z,0
2023-04-04T00:49:27.485Z,0
2023-04-04T00:50:42.688Z,0
2023-04-04T00:51:58.809Z,0
2023-04-04T00:53:14.960Z,0
2023-04-04T00:54:31.076Z,0
2023-04-04T00:55:47.227Z,0
2023-04-04T00:57:03.376Z,0
2023-04-04T00:58:19.492Z,0
2023-04-04T00:59:35.626Z,0
2023-04-04T01:00:51.771Z,0
2023-04-04T01:02:07.926Z,0
2023-04-04T01:03:24.057Z,0
2023-04-04T01:04:40.180Z,0
2023-04-04T01:05:56.323Z,0
2023-04-04T01:07:12.453Z,0
2023-04-04T01:08:28.599Z,0
2023-04-04T01:09:44.736Z,0
2023-04-04T01:11:00.868Z,0
2023-04-04T01:12:17.004Z,0
2023-04-04T01:13:33.127Z,0
2023-04-04T01:14:49.277Z,0
2023-04-04T01:16:05.425Z,0
2023-04-04T01:17:21.555Z,0
2023-04-04T01:19:53.808Z,0
2023-04-04T01:21:09.972Z,0
2023-04-04T01:22:26.167Z,0
2023-04-04T01:23:41.417Z,0
2023-04-04T01:24:56.629Z,0
2023-04-04T01:26:12.754Z,0
2023-04-04T01:27:28.884Z,0
2023-04-04T01:28:45.015Z,0
2023-04-04T01:30:01.154Z,0
2023-04-04T01:31:17.313Z,0
2023-04-04T01:32:33.449Z,0
2023-04-04T01:33:49.565Z,0
2023-04-04T01:35:05.698Z,0
2023-04-04T01:36:21.839Z,0
2023-04-04T01:37:37.982Z,0
2023-04-04T01:38:54.113Z,0
2023-04-04T01:40:10.265Z,0
2023-04-04T01:41:26.388Z,0
2023-04-04T01:42:42.526Z,0
2023-04-04T01:43:58.668Z,0
2023-04-04T01:45:14.815Z,0
2023-04-04T01:46:30.944Z,0
2023-04-04T01:47:47.080Z,0
2023-04-04T01:49:03.201Z,0
2023-04-04T01:50:19.349Z,0
2023-04-04T01:51:35.477Z,0
2023-04-04T01:52:51.618Z,0
2023-04-04T01:54:07.761Z,0
2023-04-04T01:55:23.887Z,0
2023-04-04T01:56:40.105Z,0
2023-04-04T01:57:55.333Z,0
2023-04-04T01:59:10.540Z,0
2023-04-04T02:00:26.689Z,0
2023-04-04T02:01:42.823Z,0
2023-04-04T02:02:58.949Z,0
2023-04-04T02:04:15.082Z,0
2023-04-04T02:05:31.214Z,0
2023-04-04T02:06:47.368Z,0
2023-04-04T02:08:03.490Z,0
2023-04-04T02:09:19.643Z,0
2023-04-04T02:10:35.767Z,0
2023-04-04T02:11:51.903Z,0
2023-04-04T02:13:08.049Z,0
2023-04-04T02:14:24.190Z,0
2023-04-04T02:15:40.315Z,0
2023-04-04T02:16:56.446Z,0
2023-04-04T02:18:12.585Z,0
2023-04-04T02:19:28.727Z,0
2023-04-04T02:20:44.869Z,0
2023-04-04T02:22:01.001Z,0
2023-04-04T02:23:17.133Z,0
2023-04-04T02:24:33.276Z,0
2023-04-04T02:25:49.422Z,0
2023-04-04T02:27:05.546Z,0
2023-04-04T02:28:21.683Z,0
2023-04-04T02:29:37.819Z,0
2023-04-04T02:30:54.002Z,0
2023-04-04T02:32:09.255Z,0
2023-04-04T02:33:25.433Z,0
2023-04-04T02:34:40.652Z,0
2023-04-04T02:35:56.781Z,0
2023-04-04T02:37:12.912Z,0
2023-04-04T02:38:29.057Z,0
2023-04-04T02:39:45.189Z,0
2023-04-04T02:41:01.315Z,0
2023-04-04T02:42:17.475Z,0
2023-04-04T02:43:33.612Z,0
2023-04-04T02:44:49.743Z,0
2023-04-04T02:46:05.869Z,0
2023-04-04T02:47:22.001Z,0
2023-04-04T02:48:38.157Z,0
2023-04-04T02:49:54.292Z,0
2023-04-04T02:51:10.428Z,0
2023-04-04T02:52:26.556Z,0
2023-04-04T02:53:42.695Z,0
2023-04-04T02:54:58.837Z,0
2023-04-04T02:56:14.975Z,0
2023-04-04T02:57:31.102Z,0
2023-04-04T02:58:47.240Z,0
2023-04-04T03:00:03.368Z,0
2023-04-04T03:01:19.514Z,0
2023-04-04T03:02:35.651Z,0
2023-04-04T03:03:51.780Z,0
2023-04-04T03:05:07.922Z,0
2023-04-04T03:06:24.116Z,0
2023-04-04T03:07:39.356Z,0
2023-04-04T03:08:54.566Z,0
2023-04-04T03:10:09.717Z,0
2023-04-04T03:11:25.848Z,0
2023-04-04T03:12:41.981Z,0
2023-04-04T03:13:58.099Z,0
2023-04-04T03:15:14.252Z,0
2023-04-04T03:16:30.386Z,0
2023-04-04T03:17:46.515Z,0
2023-04-04T03:19:02.655Z,0
2023-04-04T03:20:18.792Z,0
2023-04-04T03:21:34.919Z,0
2023-04-04T03:22:51.071Z,0
2023-04-04T03:24:07.215Z,0
2023-04-04T03:25:23.334Z,0
2023-04-04T03:26:39.481Z,0
2023-04-04T03:27:55.606Z,0
2023-04-04T03:29:11.760Z,0
2023-04-04T03:30:27.888Z,0
2023-04-04T03:31:44.014Z,0
2023-04-04T03:33:00.158Z,0
2023-04-04T03:34:16.279Z,0
2023-04-04T03:35:32.427Z,0
2023-04-04T03:36:48.561Z,0
2023-04-04T03:38:04.707Z,0
2023-04-04T03:39:20.826Z,0
2023-04-04T03:40:36.970Z,0
2023-04-04T03:41:53.116Z,0
2023-04-04T03:43:09.251Z,0
2023-04-04T03:44:25.388Z,0
2023-04-04T03:45:41.520Z,0
2023-04-04T03:46:57.659Z,0
2023-04-04T03:48:13.808Z,0
2023-04-04T03:49:29.942Z,0
2023-04-04T03:50:46.056Z,0
2023-04-04T03:52:02.199Z,0
2023-04-04T03:53:18.328Z,0
2023-04-04T03:54:34.475Z,0
2023-04-04T03:55:50.612Z,0
2023-04-04T03:57:06.813Z,0
2023-04-04T03:58:22.055Z,0
2023-04-04T03:59:37.254Z,0
2023-04-04T04:00:53.388Z,0
2023-04-04T04:02:09.529Z,0
2023-04-04T04:03:25.653Z,0
2023-04-04T04:04:41.798Z,0
2023-04-04T04:05:57.941Z,0
2023-04-04T04:07:14.060Z,0
2023-04-04T04:08:30.199Z,0
2023-04-04T04:09:46.332Z,0
2023-04-04T04:11:02.492Z,0
2023-04-04T04:12:18.622Z,0
2023-04-04T04:13:34.753Z,0
2023-04-04T04:14:50.891Z,0
2023-04-04T04:16:07.027Z,4
2023-04-04T04:17:23.156Z,0
2023-04-04T04:18:39.299Z,0
2023-04-04T04:19:55.428Z,4
2023-04-04T04:21:11.567Z,4
2023-04-04T04:22:27.701Z,4
2023-04-04T04:23:43.853Z,8
2023-04-04T04:24:59.975Z,8
2023-04-04T04:26:16.112Z,8
2023-04-04T04:27:32.251Z,8
2023-04-04T04:28:48.384Z,12
2023-04-04T04:30:04.533Z,20
2023-04-04T04:31:20.715Z,20
2023-04-04T04:32:35.968Z,28
2023-04-04T04:33:51.174Z,32
2023-04-04T04:35:07.300Z,36
2023-04-04T04:36:23.431Z,44
2023-04-04T04:37:39.572Z,52
2023-04-04T04:38:55.700Z,60
2023-04-04T04:40:11.845Z,72
2023-04-04T04:41:27.990Z,80
2023-04-04T04:42:44.114Z,92
2023-04-04T04:44:00.246Z,100
2023-04-04T04:45:16.392Z,116
2023-04-04T04:46:32.525Z,132
2023-04-04T04:47:48.662Z,148
2023-04-04T04:49:04.790Z,164
2023-04-04T04:50:20.932Z,180
2023-04-04T04:51:37.063Z,196
2023-04-04T04:52:53.207Z,212
2023-04-04T04:54:09.352Z,228
2023-04-04T04:55:25.487Z,248
2023-04-04T04:56:41.622Z,268
2023-04-04T04:57:57.751Z,292
2023-04-04T04:59:13.898Z,320
2023-04-04T05:00:30.032Z,340
2023-04-04T05:01:46.155Z,364
2023-04-04T05:03:02.290Z,380
2023-04-04T05:04:18.437Z,408
2023-04-04T05:05:34.644Z,432
2023-04-04T05:06:49.870Z,456
2023-04-04T05:08:06.077Z,484
2023-04-04T05:09:21.274Z,500
2023-04-04T05:10:37.408Z,528
2023-04-04T05:11:53.548Z,560
2023-04-04T05:13:09.682Z,592
2023-04-04T05:14:25.806Z,628
2023-04-04T05:15:41.956Z,660
2023-04-04T05:16:58.088Z,688
2023-04-04T05:18:14.218Z,716
2023-04-04T05:19:30.360Z,736
2023-04-04T05:20:46.492Z,768
2023-04-04T05:22:02.648Z,808
2023-04-04T05:23:18.781Z,856
2023-04-04T05:24:34.902Z,904
2023-04-04T05:25:51.038Z,964
2023-04-04T05:27:07.172Z,1028
2023-04-04T05:28:23.323Z,1100
2023-04-04T05:29:39.458Z,1168
2023-04-04T05:30:55.588Z,1232
2023-04-04T05:32:11.716Z,1300
2023-04-04T05:33:27.857Z,1352
2023-04-04T05:34:44.004Z,1424
2023-04-04T05:36:00.140Z,1484
2023-04-04T05:37:16.276Z,1548
2023-04-04T05:38:32.398Z,1612
2023-04-04T05:39:48.534Z,1676
2023-04-04T05:41:04.742Z,1740
2023-04-04T05:42:20.012Z,1808
2023-04-04T05:43:35.219Z,1868
2023-04-04T05:44:51.358Z,1936
2023-04-04T05:46:07.482Z,2020
2023-04-04T05:47:23.633Z,2104
2023-04-04T05:48:39.752Z,2200
2023-04-04T05:49:55.882Z,2292
2023-04-04T05:51:12.040Z,2372
2023-04-04T05:52:28.173Z,2436
2023-04-04T05:53:44.312Z,2492
2023-04-04T05:55:00.439Z,2544
2023-04-04T05:56:16.577Z,2620
2023-04-04T05:57:32.718Z,2744
2023-04-04T05:58:48.854Z,2868
2023-04-04T06:00:04.995Z,2964
2023-04-04T06:01:21.123Z,3012
2023-04-04T06:02:37.250Z,3028
2023-04-04T06:03:53.404Z,3024
2023-04-04T06:05:09.532Z,3040
2023-04-04T06:06:25.680Z,3084
2023-04-04T06:07:41.812Z,3120
2023-04-04T06:08:57.935Z,3180
2023-04-04T06:10:14.085Z,3232
2023-04-04T06:11:30.221Z,3252
2023-04-04T06:12:46.355Z,3248
2023-04-04T06:14:02.477Z,3220
2023-04-04T06:15:18.680Z,3176
2023-04-04T06:16:33.914Z,3140
2023-04-04T06:17:49.131Z,3096
2023-04-04T06:19:05.247Z,3004
2023-04-04T06:20:21.405Z,2868
2023-04-04T06:21:37.535Z,2796
2023-04-04T06:22:53.674Z,2772
2023-04-04T06:24:09.804Z,2720
2023-04-04T06:25:25.932Z,2684
2023-04-04T06:26:42.078Z,2612
2023-04-04T06:27:58.218Z,2524
2023-04-04T06:29:14.356Z,2432
2023-04-04T06:30:30.473Z,2432
2023-04-04T06:31:46.615Z,2556
2023-04-04T06:33:02.767Z,2672
2023-04-04T06:34:18.891Z,2784
2023-04-04T06:35:35.019Z,2908
2023-04-04T06:36:51.153Z,3020
2023-04-04T06:38:07.303Z,3092
2023-04-04T06:39:23.433Z,3164
2023-04-04T06:40:39.583Z,3156
2023-04-04T06:41:55.701Z,3140
2023-04-04T06:43:11.837Z,3108
2023-04-04T06:44:27.974Z,3064
2023-04-04T06:45:44.129Z,3048
2023-04-04T06:47:00.257Z,3064
2023-04-04T06:48:16.377Z,3148
2023-04-04T06:49:32.578Z,3228
2023-04-04T06:50:47.825Z,3180
2023-04-04T06:52:04.005Z,3296
2023-04-04T06:53:19.205Z,3404
2023-04-04T06:54:35.348Z,3492
2023-04-04T06:55:51.494Z,3568
2023-04-04T06:57:07.618Z,3636
2023-04-04T06:58:23.752Z,3700
2023-04-04T06:59:39.886Z,3644
2023-04-04T07:00:56.018Z,3680
2023-04-04T07:02:12.165Z,3720
2023-04-04T07:03:28.303Z,3712
2023-04-04T07:04:44.432Z,3708
2023-04-04T07:06:00.580Z,3748
2023-04-04T07:07:16.709Z,3836
2023-04-04T07:08:32.855Z,4044
2023-04-04T07:09:48.977Z,4088
2023-04-04T07:11:05.125Z,4116
2023-04-04T07:12:21.253Z,4104
2023-04-04T07:13:37.378Z,4040
2023-04-04T07:14:53.529Z,3964
2023-04-04T07:16:09.668Z,3912
2023-04-04T07:17:25.810Z,3908
2023-04-04T07:18:41.935Z,3924
2023-04-04T07:19:58.067Z,4032
2023-04-04T07:21:14.219Z,4128
2023-04-04T07:22:30.358Z,4656
2023-04-04T07:23:46.484Z,16984
2023-04-04T07:25:02.678Z,23392
2023-04-04T07:26:17.918Z,24448
2023-04-04T07:27:33.122Z,28640
2023-04-04T07:28:48.269Z,29664
2023-04-04T07:31:20.560Z,30976
2023-04-04T07:32:36.682Z,30912
2023-04-04T07:33:52.821Z,31680
2023-04-04T07:35:08.952Z,30944
2023-04-04T07:36:25.107Z,28800
2023-04-04T07:37:41.229Z,25600
2023-04-04T07:38:57.358Z,20064
2023-04-04T07:40:13.492Z,24832
2023-04-04T07:41:29.626Z,25312
2023-04-04T07:42:45.780Z,28864
2023-04-04T07:44:01.914Z,36224
2023-04-04T07:45:18.044Z,36544
2023-04-04T07:46:34.182Z,37472
2023-04-04T07:47:50.314Z,37952
2023-04-04T07:49:06.463Z,37088
2023-04-04T07:50:22.598Z,36576
2023-04-04T07:51:38.720Z,36448
2023-04-04T07:52:54.860Z,33664
2023-04-04T07:54:10.994Z,32768
2023-04-04T07:55:27.137Z,33984
2023-04-04T07:56:43.282Z,35520
2023-04-04T07:57:59.414Z,35552
2023-04-04T07:59:15.548Z,37728
2023-04-04T08:00:31.678Z,39424
2023-04-04T08:01:47.812Z,41568
2023-04-04T08:03:03.946Z,42336
2023-04-04T08:04:20.094Z,42976
2023-04-04T08:05:36.217Z,43808
2023-04-04T08:06:52.355Z,43232
2023-04-04T08:08:08.515Z,41600
2023-04-04T08:09:24.647Z,40704
2023-04-04T08:10:40.764Z,40928
2023-04-04T08:11:56.899Z,42208
2023-04-04T08:13:13.047Z,43232
2023-04-04T08:14:29.185Z,42528
2023-04-04T08:15:45.386Z,42336
2023-04-04T08:17:00.625Z,41568
2023-04-04T08:18:15.834Z,35488
2023-04-04T08:19:31.966Z,5880
2023-04-04T08:20:48.102Z,30720
2023-04-04T08:22:04.217Z,49248
2023-04-04T08:23:20.362Z,48160
2023-04-04T08:24:36.515Z,45920
2023-04-04T08:25:52.643Z,46560
2023-04-04T08:27:08.773Z,48128
2023-04-04T08:28:24.909Z,49632
2023-04-04T08:29:41.038Z,50912
2023-04-04T08:30:57.187Z,8024
2023-04-04T08:32:13.333Z,6236
2023-04-04T08:33:29.465Z,6788
2023-04-04T08:34:45.598Z,8544
2023-04-04T08:36:01.735Z,9756
2023-04-04T08:37:17.872Z,45184
2023-04-04T08:38:34.007Z,10128
2023-04-04T08:41:06.278Z,7072
2023-04-04T08:42:22.413Z,6896
2023-04-04T08:43:38.562Z,7372
2023-04-04T08:44:54.697Z,8348
2023-04-04T08:46:10.824Z,10332
2023-04-04T08:47:26.956Z,67360
2023-04-04T08:48:43.086Z,67808
2023-04-04T08:49:59.299Z,69152
2023-04-04T08:51:14.527Z,74304
2023-04-04T08:52:29.806Z,86016
2023-04-04T08:53:45.047Z,76448
2023-04-04T08:55:00.258Z,75008
2023-04-04T08:56:16.387Z,21056
2023-04-04T08:57:32.539Z,13704
2023-04-04T08:58:48.660Z,21440
2023-04-04T09:00:04.801Z,24192
2023-04-04T09:01:20.939Z,19808
2023-04-04T09:02:37.070Z,12640
2023-04-04T09:03:53.224Z,11156
2023-04-04T09:05:09.355Z,10104
2023-04-04T09:06:25.481Z,9768
2023-04-04T09:07:41.622Z,9784
2023-04-04T09:08:57.743Z,9940
2023-04-04T09:10:13.905Z,8444
2023-04-04T09:11:30.037Z,8760
2023-04-04T09:12:46.175Z,6996
2023-04-04T09:14:02.302Z,7200
2023-04-04T09:15:18.423Z,5212
2023-04-04T09:16:34.589Z,5860
2023-04-04T09:17:50.707Z,5412
2023-04-04T09:19:06.839Z,5964
2023-04-04T09:20:22.986Z,6512
2023-04-04T09:21:39.124Z,6368
2023-04-04T09:22:55.258Z,6820
2023-04-04T09:24:11.407Z,6852
2023-04-04T09:25:27.527Z,6528
2023-04-04T09:26:43.724Z,7160
2023-04-04T09:27:58.924Z,8156
2023-04-04T09:29:15.073Z,9380
2023-04-04T09:30:31.189Z,26048
2023-04-04T09:31:47.321Z,26016
2023-04-04T09:33:03.466Z,14712
2023-04-04T09:34:19.617Z,18572
2023-04-04T09:35:35.750Z,22528
2023-04-04T09:36:51.887Z,26592
2023-04-04T09:38:08.022Z,28448
2023-04-04T09:39:24.154Z,27776
2023-04-04T09:40:40.304Z,27648
2023-04-04T09:41:56.427Z,28096
2023-04-04T09:43:12.559Z,27360
2023-04-04T09:44:28.698Z,30112
2023-04-04T09:45:44.826Z,35200
2023-04-04T09:47:00.979Z,37152
2023-04-04T09:48:17.122Z,23168
2023-04-04T09:49:33.252Z,12744
2023-04-04T09:50:49.378Z,11964
2023-04-04T09:52:05.513Z,37600
2023-04-04T09:53:21.661Z,41824
2023-04-04T09:54:37.787Z,39200
2023-04-04T09:55:53.934Z,13028
2023-04-04T09:57:10.058Z,10732
2023-04-04T09:58:26.193Z,42816
2023-04-04T09:59:42.409Z,42688
2023-04-04T10:00:57.671Z,9140
2023-04-04T10:02:12.868Z,8260
2023-04-04T10:03:29.010Z,27040
2023-04-04T10:04:45.143Z,7496
2023-04-04T10:06:01.289Z,7504
2023-04-04T10:07:17.428Z,7700
2023-04-04T10:08:33.548Z,7588
2023-04-04T10:09:49.695Z,7536
2023-04-04T10:11:05.837Z,7536
2023-04-04T10:12:21.977Z,6956
2023-04-04T10:13:38.105Z,7112
2023-04-04T10:14:54.226Z,7092
2023-04-04T10:16:10.388Z,7176
2023-04-04T10:17:26.510Z,7028
2023-04-04T10:18:42.646Z,7976
2023-04-04T10:19:58.776Z,10880
2023-04-04T10:21:14.911Z,13952
2023-04-04T10:22:31.070Z,26272
2023-04-04T10:23:47.198Z,46208
2023-04-04T10:25:03.338Z,42240
2023-04-04T10:26:19.462Z,19052
2023-04-04T10:27:35.601Z,23936
2023-04-04T10:28:51.750Z,23872
2023-04-04T10:30:07.882Z,6540
2023-04-04T10:31:24.017Z,8716
2023-04-04T10:32:40.145Z,45600
2023-04-04T10:33:56.334Z,45408
2023-04-04T10:35:11.582Z,47008
2023-04-04T10:36:26.783Z,47168
2023-04-04T10:37:42.918Z,45952
2023-04-04T10:38:59.068Z,46912
2023-04-04T10:40:15.203Z,29088
2023-04-04T10:41:31.343Z,8516
2023-04-04T10:42:47.464Z,7252
2023-04-04T10:44:03.613Z,6884
2023-04-04T10:45:19.759Z,6964
2023-04-04T10:46:35.897Z,7044
2023-04-04T10:47:52.031Z,7284
2023-04-04T10:49:08.151Z,6964
2023-04-04T10:50:24.301Z,6768
2023-04-04T10:51:40.435Z,6696
2023-04-04T10:52:56.570Z,7460
2023-04-04T10:54:12.698Z,7536
2023-04-04T10:55:28.848Z,43456
2023-04-04T10:56:44.968Z,43360
2023-04-04T10:58:01.131Z,42880
2023-04-04T10:59:17.263Z,42496
2023-04-04T11:00:33.393Z,42048
2023-04-04T11:01:49.526Z,41408
2023-04-04T11:03:05.649Z,38912
2023-04-04T11:04:21.814Z,41824
2023-04-04T11:05:37.937Z,34688
2023-04-04T11:06:54.075Z,38784
2023-04-04T11:08:10.261Z,32672
2023-04-04T11:09:25.499Z,39872
2023-04-04T11:10:41.707Z,25984
2023-04-04T11:11:56.900Z,30400
2023-04-04T11:13:13.039Z,9996
2023-04-04T11:14:29.185Z,10256
2023-04-04T11:15:45.323Z,39680
2023-04-04T11:17:01.461Z,38080
2023-04-04T11:18:17.592Z,35040
2023-04-04T11:19:33.736Z,32992
2023-04-04T11:20:49.877Z,33376
2023-04-04T11:22:06.001Z,32480
2023-04-04T11:23:22.148Z,32256
2023-04-04T11:24:38.289Z,32320
2023-04-04T11:25:54.420Z,32768
2023-04-04T11:27:10.570Z,32512
2023-04-04T11:28:26.702Z,32352
2023-04-04T11:29:42.824Z,32128
2023-04-04T11:30:58.960Z,32064
2023-04-04T11:32:15.089Z,31264
2023-04-04T11:33:31.251Z,30912
2023-04-04T11:34:47.392Z,28096
2023-04-04T11:36:03.506Z,11276
2023-04-04T11:37:19.660Z,6352
2023-04-04T11:38:35.779Z,6128
2023-04-04T11:39:51.934Z,5960
2023-04-04T11:41:08.064Z,5852
2023-04-04T11:42:24.199Z,5720
2023-04-04T11:43:40.405Z,5536
2023-04-04T11:44:55.640Z,5400
2023-04-04T11:46:10.898Z,5320
2023-04-04T11:47:26.138Z,5316
2023-04-04T11:48:41.350Z,5404
2023-04-04T11:49:57.492Z,5636
2023-04-04T11:51:13.621Z,5700
2023-04-04T11:52:29.750Z,5676
2023-04-04T11:53:45.898Z,5716
2023-04-04T11:55:02.040Z,5920
2023-04-04T11:56:18.175Z,6204
2023-04-04T11:57:34.307Z,6252
2023-04-04T11:58:50.441Z,6052
2023-04-04T12:00:06.589Z,4900
2023-04-04T12:01:22.726Z,5852
2023-04-04T12:02:38.859Z,6380
2023-04-04T12:03:54.982Z,6460
2023-04-04T12:05:11.127Z,6292
2023-04-04T12:06:27.257Z,6328
2023-04-04T12:07:43.390Z,5868
2023-04-04T12:08:59.527Z,5660
2023-04-04T12:10:15.669Z,5464
2023-04-04T12:11:31.804Z,5312
2023-04-04T12:12:47.950Z,5356
2023-04-04T12:14:04.089Z,5172
2023-04-04T12:15:20.217Z,5644
2023-04-04T12:16:36.346Z,5400
2023-04-04T12:17:52.474Z,6136
2023-04-04T12:19:08.638Z,5412
2023-04-04T12:20:24.814Z,6144
2023-04-04T12:21:40.031Z,5520
2023-04-04T12:22:56.164Z,5228
2023-04-04T12:24:12.320Z,6088
2023-04-04T12:25:28.445Z,6228
2023-04-04T12:26:44.572Z,6320
2023-04-04T12:28:00.713Z,6256
2023-04-04T12:29:16.852Z,6224
2023-04-04T12:30:32.987Z,6176
2023-04-04T12:31:49.125Z,6196
2023-04-04T12:33:05.264Z,5832
2023-04-04T12:34:21.387Z,5796
2023-04-04T12:35:37.534Z,5880
2023-04-04T12:36:53.675Z,5748
2023-04-04T12:38:09.806Z,5940
2023-04-04T12:39:25.937Z,6172
2023-04-04T12:40:42.077Z,6304
2023-04-04T12:41:58.212Z,5820
2023-04-04T12:43:14.362Z,5564
2023-04-04T12:44:30.482Z,5248
2023-04-04T12:45:46.618Z,4944
2023-04-04T12:47:02.743Z,5212
2023-04-04T12:48:18.886Z,5344
2023-04-04T12:49:35.047Z,5184
2023-04-04T12:50:51.173Z,5220
2023-04-04T12:52:07.296Z,5080
2023-04-04T12:53:23.502Z,4996
2023-04-04T12:54:38.729Z,4800
2023-04-04T12:55:53.946Z,4844
2023-04-04T12:57:09.101Z,4924
2023-04-04T12:58:25.249Z,4932
2023-04-04T12:59:41.382Z,4824
2023-04-04T13:00:57.501Z,4716
2023-04-04T13:02:13.631Z,4728
2023-04-04T13:03:29.767Z,4628
2023-04-04T13:04:45.912Z,4408
2023-04-04T13:06:02.058Z,4184
2023-04-04T13:07:18.181Z,3944
2023-04-04T13:08:34.315Z,3720
2023-04-04T13:09:50.454Z,3560
2023-04-04T13:11:06.611Z,3524
2023-04-04T13:12:22.729Z,3528
2023-04-04T13:13:38.876Z,3572
2023-04-04T13:14:55.004Z,3640
2023-04-04T13:16:11.136Z,3656
2023-04-04T13:17:27.281Z,3680
2023-04-04T13:18:43.410Z,3788
2023-04-04T13:19:59.562Z,3952
2023-04-04T13:21:15.692Z,4208
2023-04-04T13:22:31.814Z,4496
2023-04-04T13:23:47.959Z,4728
2023-04-04T13:25:04.091Z,4888
2023-04-04T13:26:20.230Z,5004
2023-04-04T13:27:36.372Z,5040
2023-04-04T13:28:52.502Z,4992
2023-04-04T13:30:08.640Z,4892
2023-04-04T13:31:24.779Z,4800
2023-04-04T13:32:40.904Z,4728
2023-04-04T13:33:57.048Z,4644
2023-04-04T13:35:13.189Z,4548
2023-04-04T13:36:29.321Z,4460
2023-04-04T13:37:45.471Z,4356
2023-04-04T13:39:01.603Z,4248
2023-04-04T13:40:17.725Z,4136
2023-04-04T13:41:33.863Z,3996
2023-04-04T13:42:50.011Z,3864
2023-04-04T13:44:06.205Z,3756
2023-04-04T13:45:21.437Z,3680
2023-04-04T13:46:36.638Z,3564
2023-04-04T13:47:52.770Z,3404
2023-04-04T13:49:08.903Z,3304
2023-04-04T13:50:25.054Z,3288
2023-04-04T13:51:41.184Z,3364
2023-04-04T13:52:57.327Z,3336
2023-04-04T13:54:13.458Z,3200
2023-04-04T13:55:29.590Z,3036
2023-04-04T13:56:45.732Z,2784
2023-04-04T13:58:01.868Z,2612
2023-04-04T13:59:18.003Z,2396
2023-04-04T14:00:34.131Z,2220
2023-04-04T14:01:50.272Z,2132
2023-04-04T14:03:06.407Z,2036
2023-04-04T14:04:22.546Z,1944
2023-04-04T14:05:38.696Z,1852
2023-04-04T14:06:54.821Z,1796
2023-04-04T14:08:10.958Z,1764
2023-04-04T14:09:27.096Z,1732
2023-04-04T14:10:43.215Z,1728
2023-04-04T14:11:59.366Z,1724
2023-04-04T14:13:15.512Z,1708
2023-04-04T14:14:31.635Z,1704
2023-04-04T14:15:47.781Z,1700
2023-04-04T14:17:03.901Z,1724
2023-04-04T14:18:20.122Z,1744
2023-04-04T14:19:35.380Z,1752
2023-04-04T14:20:50.573Z,1776
2023-04-04T14:22:06.720Z,1816
2023-04-04T14:23:22.856Z,1836
2023-04-04T14:24:38.992Z,1828
2023-04-04T14:25:55.119Z,1800
2023-04-04T14:27:11.247Z,1760
2023-04-04T14:28:27.410Z,1724
2023-04-04T14:29:43.530Z,1708
2023-04-04T14:30:59.677Z,1700
2023-04-04T14:32:15.801Z,1684
2023-04-04T14:33:31.946Z,1696
2023-04-04T14:34:48.087Z,1744
2023-04-04T14:36:04.211Z,1816
2023-04-04T14:37:20.352Z,1880
2023-04-04T14:38:36.487Z,1968
2023-04-04T14:39:52.618Z,2016
2023-04-04T14:41:08.768Z,2000
2023-04-04T14:42:24.903Z,1948
2023-04-04T14:43:41.000Z,1908
2023-04-04T14:44:57.163Z,1884
2023-04-04T14:46:13.288Z,1888
2023-04-04T14:47:29.436Z,1844
2023-04-04T14:48:45.575Z,1748
2023-04-04T14:50:01.706Z,1636
2023-04-04T14:51:17.836Z,1532
2023-04-04T14:52:34.037Z,1444
2023-04-04T14:53:49.275Z,1364
2023-04-04T14:55:04.472Z,1288
2023-04-04T14:56:20.625Z,1224
2023-04-04T14:57:36.757Z,1172
2023-04-04T14:58:52.903Z,1132
2023-04-04T15:00:09.031Z,1092
2023-04-04T15:01:25.166Z,1060
2023-04-04T15:02:41.307Z,1028
2023-04-04T15:03:57.447Z,1000
2023-04-04T15:05:13.581Z,980
2023-04-04T15:06:29.708Z,960
2023-04-04T15:07:45.837Z,944
2023-04-04T15:09:01.988Z,932
2023-04-04T15:11:34.252Z,912
2023-04-04T15:12:50.393Z,904
2023-04-04T15:14:06.529Z,896
2023-04-04T15:15:22.660Z,888
2023-04-04T15:16:38.800Z,884
2023-04-04T15:17:54.947Z,876
2023-04-04T15:19:11.076Z,872
2023-04-04T15:20:27.215Z,864
2023-04-04T15:21:43.346Z,860
2023-04-04T15:22:59.482Z,848
2023-04-04T15:24:15.615Z,844
2023-04-04T15:25:31.745Z,840
2023-04-04T15:26:47.954Z,836
2023-04-04T15:28:03.185Z,828
2023-04-04T15:29:19.370Z,824
2023-04-04T15:30:34.577Z,820
2023-04-04T15:31:50.708Z,816
2023-04-04T15:33:06.863Z,812
2023-04-04T15:34:22.986Z,808
2023-04-04T15:35:39.126Z,804
2023-04-04T15:36:55.252Z,800
2023-04-04T15:38:11.398Z,796
2023-04-04T15:39:27.551Z,792
2023-04-04T15:40:43.684Z,788
2023-04-04T15:41:59.801Z,788
2023-04-04T15:43:15.944Z,780
2023-04-04T15:44:32.085Z,776
2023-04-04T15:45:48.224Z,772
2023-04-04T15:47:04.367Z,768
2023-04-04T15:48:20.496Z,760
2023-04-04T15:49:36.631Z,760
2023-04-04T15:50:52.748Z,756
2023-04-04T15:52:08.914Z,748
2023-04-04T15:53:25.031Z,748
2023-04-04T15:54:41.162Z,744
2023-04-04T15:55:57.304Z,740
2023-04-04T15:57:13.438Z,736
2023-04-04T15:58:29.594Z,732
2023-04-04T15:59:45.719Z,728
2023-04-04T16:01:01.850Z,724
2023-04-04T16:02:18.044Z,720
2023-04-04T16:03:33.275Z,716
2023-04-04T16:04:48.483Z,712
2023-04-04T16:06:03.636Z,704
2023-04-04T16:07:19.793Z,704
2023-04-04T16:08:35.935Z,696
2023-04-04T16:09:52.066Z,692
2023-04-04T16:11:08.182Z,692
2023-04-04T16:12:24.315Z,684
2023-04-04T16:13:40.472Z,680
2023-04-04T16:14:56.616Z,676
2023-04-04T16:16:12.749Z,672
2023-04-04T16:17:28.880Z,668
2023-04-04T16:18:45.013Z,660
2023-04-04T16:20:01.156Z,656
2023-04-04T16:21:17.297Z,652
2023-04-04T16:22:33.418Z,648
2023-04-04T16:23:49.563Z,644
2023-04-04T16:25:05.688Z,644
2023-04-04T16:26:21.836Z,636
2023-04-04T16:27:37.976Z,628
2023-04-04T16:28:54.099Z,628
2023-04-04T16:30:10.243Z,620
2023-04-04T16:31:26.370Z,616
2023-04-04T16:32:42.523Z,608
2023-04-04T16:33:58.657Z,608
2023-04-04T16:35:14.000Z,600
2023-04-04T16:36:30.912Z,596
2023-04-04T16:37:47.043Z,588
2023-04-04T16:39:03.199Z,584
2023-04-04T16:40:19.323Z,576
2023-04-04T16:41:35.460Z,572
2023-04-04T16:42:51.592Z,564
2023-04-04T16:44:07.729Z,556
2023-04-04T16:45:23.884Z,552
2023-04-04T16:46:40.003Z,540
2023-04-04T16:47:56.150Z,520
2023-04-04T16:49:12.275Z,504
2023-04-04T16:50:28.402Z,496
2023-04-04T16:51:44.569Z,492
2023-04-04T16:53:00.753Z,488
2023-04-04T16:54:15.997Z,484
2023-04-04T16:55:31.207Z,480
2023-04-04T16:56:47.328Z,476
2023-04-04T16:58:03.458Z,468
2023-04-04T16:59:19.604Z,460
2023-04-04T17:00:35.723Z,452
2023-04-04T17:01:51.876Z,444
2023-04-04T17:03:08.004Z,424
2023-04-04T17:04:24.155Z,412
2023-04-04T17:05:40.269Z,400
2023-04-04T17:06:56.413Z,380
2023-04-04T17:08:12.566Z,368
2023-04-04T17:09:28.697Z,352
2023-04-04T17:10:44.825Z,344
2023-04-04T17:12:00.951Z,332
2023-04-04T17:13:17.086Z,320
2023-04-04T17:14:33.232Z,308
2023-04-04T17:15:49.368Z,296
2023-04-04T17:17:05.511Z,288
2023-04-04T17:18:21.634Z,280
2023-04-04T17:19:37.774Z,272
2023-04-04T17:20:53.926Z,260
2023-04-04T17:22:10.060Z,252
2023-04-04T17:23:26.187Z,240
2023-04-04T17:24:42.323Z,232
2023-04-04T17:25:58.458Z,224